Time;durP1;ratioP1;P1;durP2;ratioP2;P2;SDS_P1;SDS_P2;PMS_P1;PMS_P2;Temp;Humidity;BMP_temperature;BMP_pressure;BME280_temperature;BME280_humidity;BME280_pressure;Samples;Min_cycle;Max_cycle;Signal;HPM_P1;HPM_P2
2024/04/12 00:01:16;;;;;;;3.63;3.33;;;6.10;99.90;;;;;;5356931;26;20005;-33
2024/04/12 00:03:43;;;;;;;3.90;3.40;;;5.70;99.90;;;;;;5334722;26;20478;-33
2024/04/12 00:06:17;;;;;;;4.03;3.47;;;5.60;99.90;;;;;;5339085;26;20585;-35
2024/04/12 00:08:47;;;;;;;4.70;3.50;;;5.80;99.90;;;;;;5330795;26;20041;-32
2024/04/12 00:11:18;;;;;;;5.43;3.67;;;6.00;99.90;;;;;;5333619;26;20009;-32
2024/04/12 00:13:45;;;;;;;4.88;3.63;;;6.10;99.90;;;;;;5333289;26;20007;-32
2024/04/12 00:16:11;;;;;;;6.50;3.85;;;6.10;99.90;;;;;;5338259;26;20001;-34
2024/04/12 00:18:37;;;;;;;3.45;3.15;;;6.10;99.90;;;;;;5339664;26;20000;-32
2024/04/12 00:21:07;;;;;;;3.10;2.80;;;5.60;99.90;;;;;;5338299;26;20001;-34
2024/04/12 00:23:33;;;;;;;2.92;2.60;;;5.10;99.90;;;;;;5336800;26;20034;-35
2024/04/12 00:26:02;;;;;;;3.33;3.03;;;4.60;99.90;;;;;;5326114;26;20005;-32
2024/04/12 00:28:32;;;;;;;4.25;3.42;;;4.70;99.90;;;;;;5332553;26;22257;-32
2024/04/12 00:31:02;;;;;;;5.60;3.63;;;4.90;99.90;;;;;;5327949;26;20001;-33
2024/04/12 00:33:31;;;;;;;8.32;4.20;;;5.20;99.90;;;;;;5338096;26;20463;-32
2024/04/12 00:36:08;;;;;;;5.75;4.10;;;5.40;99.90;;;;;;5327947;26;20387;-32
2024/04/12 00:38:43;;;;;;;4.50;3.60;;;5.60;99.90;;;;;;5329191;26;20016;-36
2024/04/12 00:41:19;;;;;;;3.65;3.30;;;5.60;99.90;;;;;;5326268;26;20006;-34
2024/04/12 00:43:52;;;;;;;3.33;3.03;;;5.70;99.90;;;;;;5336920;26;20009;-32
2024/04/12 00:46:28;;;;;;;3.90;3.40;;;5.80;99.90;;;;;;5337241;26;20413;-32
2024/04/12 00:49:00;;;;;;;4.47;3.47;;;5.90;99.90;;;;;;5331884;26;20016;-32
2024/04/12 00:51:27;;;;;;;5.85;3.63;;;5.80;99.90;;;;;;5326191;26;20018;-32
2024/04/12 00:53:56;;;;;;;4.00;3.60;;;5.90;99.90;;;;;;5326219;26;22857;-34
2024/04/12 00:56:29;;;;;;;4.97;3.33;;;5.90;99.90;;;;;;5324731;26;19997;-32
2024/04/12 00:58:56;;;;;;;3.60;3.30;;;5.90;99.90;;;;;;5327514;26;20008;-34
2024/04/12 01:01:22;;;;;;;5.85;3.60;;;5.90;99.90;;;;;;5327748;26;20053;-34
2024/04/12 01:03:55;;;;;;;4.10;3.55;;;5.90;99.90;;;;;;5314407;26;20014;-39
2024/04/12 01:06:24;;;;;;;6.20;3.72;;;5.90;99.90;;;;;;5329878;26;20091;-35
2024/04/12 01:08:54;;;;;;;3.20;2.95;;;5.60;99.90;;;;;;5330765;26;20471;-37
2024/04/12 01:11:21;;;;;;;2.97;2.72;;;5.40;99.90;;;;;;5329395;26;20012;-36
2024/04/12 01:13:51;;;;;;;2.90;2.63;;;5.10;99.90;;;;;;5325556;26;20001;-33
2024/04/12 01:16:17;;;;;;;3.83;3.38;;;4.90;99.90;;;;;;5327601;26;20011;-32
2024/04/12 01:18:43;;;;;;;3.28;3.00;;;5.00;99.90;;;;;;5329865;26;20009;-35
2024/04/12 01:21:12;;;;;;;3.75;3.40;;;4.90;99.90;;;;;;5324522;26;20062;-33
2024/04/12 01:23:48;;;;;;;4.60;3.25;;;4.90;99.90;;;;;;5322368;26;20001;-34
2024/04/12 01:26:17;;;;;;;3.75;3.45;;;4.70;99.90;;;;;;5329107;26;20190;-34
2024/04/12 01:28:43;;;;;;;3.70;3.38;;;4.90;99.90;;;;;;5332629;26;20013;-32
2024/04/12 01:31:14;;;;;;;4.35;3.60;;;5.00;99.90;;;;;;5332716;26;19992;-35
2024/04/12 01:33:42;;;;;;;3.35;3.13;;;5.10;99.90;;;;;;5333667;26;20139;-32
2024/04/12 01:36:11;;;;;;;3.23;2.93;;;5.20;99.90;;;;;;5321906;26;20814;-32
2024/04/12 01:38:38;;;;;;;5.35;2.97;;;5.20;99.90;;;;;;5332915;26;20074;-35
2024/04/12 01:41:08;;;;;;;4.50;3.58;;;5.20;99.90;;;;;;5327787;26;19997;-32
2024/04/12 01:43:38;;;;;;;4.32;3.00;;;5.30;99.90;;;;;;5325356;26;20020;-32
2024/04/12 01:46:09;;;;;;;3.38;3.03;;;5.30;99.90;;;;;;5325353;26;20518;-36
2024/04/12 01:48:36;;;;;;;5.30;3.67;;;5.10;99.90;;;;;;5326628;26;20006;-32
2024/04/12 01:51:05;;;;;;;3.17;2.90;;;4.70;99.90;;;;;;5337043;26;20001;-32
2024/04/12 01:53:37;;;;;;;3.65;3.35;;;4.40;99.90;;;;;;5328829;26;20087;-37
2024/04/12 01:56:04;;;;;;;3.50;3.20;;;4.60;99.90;;;;;;5325240;26;20075;-37
2024/04/12 01:58:33;;;;;;;3.90;3.50;;;4.70;99.90;;;;;;5337630;26;20048;-33
2024/04/12 02:01:02;;;;;;;3.58;3.28;;;4.80;99.90;;;;;;5339222;26;20005;-33
2024/04/12 02:03:30;;;;;;;3.47;3.17;;;4.70;99.90;;;;;;5325990;26;20012;-32
2024/04/12 02:05:56;;;;;;;5.20;3.40;;;4.80;99.90;;;;;;5331250;26;20006;-32
2024/04/12 02:08:24;;;;;;;3.15;2.88;;;4.80;99.90;;;;;;5330226;26;20459;-33
2024/04/12 02:10:50;;;;;;;3.50;3.20;;;4.70;99.90;;;;;;5336282;26;20008;-39
2024/04/12 02:13:23;;;;;;;3.35;3.05;;;4.70;99.90;;;;;;5335588;26;20820;-34
2024/04/12 02:15:51;;;;;;;4.22;3.70;;;4.80;99.90;;;;;;5329628;26;19997;-32
2024/04/12 02:18:21;;;;;;;4.00;3.60;;;4.60;99.90;;;;;;5335393;26;20439;-34
2024/04/12 02:20:49;;;;;;;4.03;3.60;;;4.60;99.90;;;;;;5340536;26;20009;-33
2024/04/12 02:23:15;;;;;;;4.10;3.67;;;4.70;99.90;;;;;;5322187;26;20026;-32
2024/04/12 02:25:41;;;;;;;4.35;3.95;;;4.70;99.90;;;;;;5342199;26;20618;-33
2024/04/12 02:28:09;;;;;;;3.78;3.47;;;4.80;99.90;;;;;;5355555;26;20000;-32
2024/04/12 02:30:42;;;;;;;4.22;3.33;;;4.80;99.90;;;;;;5343946;26;20517;-33
2024/04/12 02:33:18;;;;;;;4.05;3.50;;;4.80;99.90;;;;;;5330323;26;20016;-34
2024/04/12 02:35:45;;;;;;;4.32;2.65;;;4.70;99.90;;;;;;5326033;26;20012;-32
2024/04/12 02:38:15;;;;;;;3.65;3.35;;;4.10;99.90;;;;;;5334446;26;20005;-33
2024/04/12 02:40:44;;;;;;;3.15;2.90;;;3.90;99.90;;;;;;5344637;26;19996;-32
2024/04/12 02:43:10;;;;;;;4.10;3.70;;;4.10;99.90;;;;;;5335405;26;20004;-33
2024/04/12 02:45:36;;;;;;;3.83;3.45;;;4.30;99.90;;;;;;5337444;26;20019;-32
2024/04/12 02:48:06;;;;;;;3.67;3.38;;;4.40;99.90;;;;;;5332643;26;20470;-32
2024/04/12 02:50:32;;;;;;;4.00;3.55;;;4.50;99.90;;;;;;5332978;26;20052;-38
2024/04/12 02:52:58;;;;;;;5.22;4.05;;;4.40;99.90;;;;;;5338335;26;20004;-33
2024/04/12 02:55:30;;;;;;;6.85;3.80;;;4.40;99.90;;;;;;5341434;26;19996;-32
2024/04/12 02:57:56;;;;;;;6.63;4.03;;;4.40;99.90;;;;;;5332509;26;20012;-32
2024/04/12 03:00:23;;;;;;;3.78;3.47;;;4.40;99.90;;;;;;5332512;26;20059;-33
2024/04/12 03:02:51;;;;;;;4.10;3.70;;;4.40;99.90;;;;;;5369619;26;19999;-37
2024/04/12 03:05:17;;;;;;;5.93;4.27;;;4.40;99.90;;;;;;5372756;26;20019;-32
2024/04/12 03:07:45;;;;;;;4.35;3.75;;;4.50;99.90;;;;;;5371386;26;19997;-32
2024/04/12 03:10:18;;;;;;;4.72;4.15;;;4.50;99.90;;;;;;5358184;26;20458;-33
2024/04/12 03:12:51;;;;;;;5.75;4.07;;;4.50;99.90;;;;;;5372067;26;20081;-34
2024/04/12 03:15:20;;;;;;;6.05;4.18;;;4.60;99.90;;;;;;5378665;26;20028;-33
2024/04/12 03:17:47;;;;;;;4.90;4.20;;;4.60;99.90;;;;;;5369235;26;19996;-32
2024/04/12 03:20:16;;;;;;;4.53;4.10;;;4.50;99.90;;;;;;5371301;26;20542;-32
2024/04/12 03:22:45;;;;;;;4.45;3.83;;;4.50;99.90;;;;;;5380154;26;20008;-32
2024/04/12 03:25:12;;;;;;;4.18;2.97;;;4.40;99.90;;;;;;5368446;26;20049;-32
2024/04/12 03:27:38;;;;;;;3.47;3.17;;;3.80;99.90;;;;;;5377333;26;20316;-32
2024/04/12 03:30:13;;;;;;;4.55;3.33;;;3.40;99.90;;;;;;5370385;26;20022;-32
2024/04/12 03:32:44;;;;;;;3.95;3.60;;;3.40;99.90;;;;;;5332802;26;20012;-38
2024/04/12 03:35:16;;;;;;;4.25;3.85;;;3.60;99.90;;;;;;5333287;26;20492;-32
2024/04/12 03:37:47;;;;;;;4.20;3.45;;;3.60;99.90;;;;;;5340362;26;20000;-33
2024/04/12 03:40:17;;;;;;;5.25;3.70;;;3.50;99.90;;;;;;5336277;26;20014;-32
2024/04/12 03:42:44;;;;;;;4.07;3.65;;;3.30;99.90;;;;;;5336459;26;19997;-34
2024/04/12 03:45:14;;;;;;;5.10;3.97;;;3.30;99.90;;;;;;5331476;26;20004;-33
2024/04/12 03:47:40;;;;;;;3.95;3.65;;;3.20;99.90;;;;;;5330245;26;20012;-35
2024/04/12 03:50:13;;;;;;;4.25;3.85;;;3.20;99.90;;;;;;5330788;26;20005;-32
2024/04/12 03:52:45;;;;;;;5.90;3.83;;;3.10;99.90;;;;;;5324939;26;20431;-34
2024/04/12 03:55:11;;;;;;;4.35;3.92;;;3.30;99.90;;;;;;5337362;26;20078;-32
2024/04/12 03:57:40;;;;;;;4.55;3.92;;;3.40;99.90;;;;;;5332023;26;20012;-33
2024/04/12 04:00:11;;;;;;;5.55;3.85;;;3.30;99.90;;;;;;5327864;26;19992;-33
2024/04/12 04:02:40;;;;;;;3.80;3.45;;;3.20;99.90;;;;;;5323622;26;20447;-35
2024/04/12 04:05:16;;;;;;;5.72;4.57;;;3.30;99.90;;;;;;5353492;26;20437;-37
2024/04/12 04:07:46;;;;;;;6.43;4.25;;;3.20;99.90;;;;;;5327318;26;20009;-32
2024/04/12 04:10:15;;;;;;;4.63;4.13;;;3.30;99.90;;;;;;5326383;26;20393;-33
2024/04/12 04:12:49;;;;;;;6.35;4.85;;;3.40;99.90;;;;;;5332287;26;20004;-32
2024/04/12 04:15:15;;;;;;;8.05;3.58;;;3.40;99.90;;;;;;5324688;26;20423;-32
2024/04/12 04:17:47;;;;;;;4.60;3.83;;;3.40;99.90;;;;;;5327253;26;20005;-32
2024/04/12 04:20:14;;;;;;;6.05;4.53;;;3.30;99.90;;;;;;5323558;26;20050;-34
2024/04/12 04:22:40;;;;;;;5.57;3.83;;;3.40;99.90;;;;;;5332005;26;20423;-38
2024/04/12 04:25:10;;;;;;;4.50;4.10;;;3.40;99.90;;;;;;5335497;26;20020;-34
2024/04/12 04:27:39;;;;;;;5.97;4.07;;;3.40;99.90;;;;;;5318897;26;20544;-35
2024/04/12 04:30:10;;;;;;;6.03;4.45;;;3.50;99.90;;;;;;5329042;26;20003;-33
2024/04/12 04:32:36;;;;;;;4.68;3.90;;;3.60;99.90;;;;;;5327867;26;20012;-32
2024/04/12 04:35:05;;;;;;;7.07;4.32;;;3.50;99.90;;;;;;5331728;26;19997;-37
2024/04/12 04:37:34;;;;;;;5.32;4.47;;;3.50;99.90;;;;;;5331208;26;19998;-36
2024/04/12 04:40:09;;;;;;;6.05;4.57;;;3.50;99.90;;;;;;5328414;26;20013;-32
2024/04/12 04:42:45;;;;;;;6.60;4.65;;;3.50;99.90;;;;;;5331769;26;20532;-35
2024/04/12 04:45:17;;;;;;;6.07;4.70;;;3.30;99.90;;;;;;5324804;26;20001;-33
2024/04/12 04:47:46;;;;;;;3.47;3.22;;;3.30;99.90;;;;;;5334620;26;19997;-34
2024/04/12 04:50:13;;;;;;;6.93;4.82;;;3.10;99.90;;;;;;5325011;26;20004;-35
2024/04/12 04:52:39;;;;;;;5.20;3.88;;;3.10;99.90;;;;;;5336748;26;20004;-34
2024/04/12 04:55:12;;;;;;;5.13;4.63;;;3.30;99.90;;;;;;5331328;26;20071;-34
2024/04/12 04:57:43;;;;;;;5.72;4.65;;;3.40;99.90;;;;;;5334602;26;20088;-32
2024/04/12 05:00:18;;;;;;;6.05;4.22;;;3.50;99.90;;;;;;5331488;26;20551;-37
2024/04/12 05:02:49;;;;;;;6.97;4.90;;;3.60;99.90;;;;;;5331694;26;20020;-34
2024/04/12 05:05:22;;;;;;;5.65;4.35;;;3.70;99.90;;;;;;5329772;26;20594;-34
2024/04/12 05:07:49;;;;;;;6.90;5.82;;;3.80;99.90;;;;;;5331858;26;20001;-40
2024/04/12 05:10:15;;;;;;;6.28;5.20;;;3.80;99.90;;;;;;5333481;26;20004;-36
2024/04/12 05:12:42;;;;;;;7.57;6.22;;;3.80;99.90;;;;;;5330025;26;20505;-32
2024/04/12 05:15:30;;;;;;;7.63;6.60;;;3.60;99.90;;;;;;5338683;26;20961;-35
2024/04/12 05:17:55;;;;;;;7.20;5.32;;;3.60;99.90;;;;;;5329158;26;20453;-33
2024/04/12 05:20:38;;;;;;;7.47;5.00;;;3.50;99.90;;;;;;5325537;26;20632;-36
2024/04/12 05:23:03;;;;;;;4.57;4.18;;;3.50;99.90;;;;;;5332029;26;20028;-33
2024/04/12 05:25:30;;;;;;;7.72;5.28;;;3.70;99.90;;;;;;5331062;26;20078;-36
2024/04/12 05:27:56;;;;;;;5.32;4.75;;;3.80;99.90;;;;;;5327854;26;20013;-36
2024/04/12 05:30:22;;;;;;;9.02;5.68;;;3.90;99.90;;;;;;5326126;26;20009;-35
2024/04/12 05:32:47;;;;;;;6.00;4.90;;;4.00;99.90;;;;;;5362107;26;20004;-40
2024/04/12 05:35:15;;;;;;;9.68;4.47;;;4.10;99.90;;;;;;5371550;26;20493;-32
2024/04/12 05:37:43;;;;;;;6.38;4.22;;;3.90;99.90;;;;;;5366846;26;20000;-37
2024/04/12 05:40:12;;;;;;;9.73;5.68;;;3.80;99.90;;;;;;5371501;26;20005;-37
2024/04/12 05:42:41;;;;;;;6.40;5.53;;;3.90;99.90;;;;;;5368881;26;20098;-34
2024/04/12 05:45:07;;;;;;;8.85;5.35;;;4.10;99.90;;;;;;5372222;26;19996;-37
2024/04/12 05:47:34;;;;;;;9.77;6.75;;;4.30;99.90;;;;;;5378561;26;20000;-34
2024/04/12 05:50:01;;;;;;;8.77;5.90;;;4.50;99.90;;;;;;5377789;26;20460;-33
2024/04/12 05:52:29;;;;;;;10.18;6.40;;;4.70;99.90;;;;;;5375217;26;20408;-33
2024/04/12 05:54:55;;;;;;;10.70;6.80;;;4.90;99.90;;;;;;5374103;26;20004;-34
2024/04/12 05:57:22;;;;;;;9.00;6.78;;;5.00;99.90;;;;;;5382373;26;20015;-36
2024/04/12 05:59:50;;;;;;;8.77;6.40;;;5.10;99.90;;;;;;5370830;26;20008;-39
2024/04/12 06:02:18;;;;;;;10.38;5.80;;;5.20;99.90;;;;;;5348888;26;20462;-33
2024/04/12 06:04:47;;;;;;;8.00;5.70;;;5.30;99.90;;;;;;5337175;26;20011;-33
2024/04/12 06:07:13;;;;;;;10.75;6.68;;;5.40;99.90;;;;;;5334096;26;19998;-33
2024/04/12 06:09:39;;;;;;;6.55;5.68;;;5.50;99.90;;;;;;5340357;26;20074;-34
2024/04/12 06:12:06;;;;;;;8.55;5.93;;;5.50;99.90;;;;;;5330522;26;20033;-34
2024/04/12 06:14:38;;;;;;;10.45;5.43;;;5.60;99.90;;;;;;5332308;26;20008;-38
2024/04/12 06:17:08;;;;;;;9.07;6.93;;;5.60;99.90;;;;;;5332665;26;19997;-33
2024/04/12 06:19:37;;;;;;;11.13;6.13;;;5.70;99.90;;;;;;5337800;26;20004;-33
2024/04/12 06:22:12;;;;;;;;;;;5.80;99.90;;;;;;5340774;26;20393;-36
2024/04/12 06:24:42;;;;;;;9.50;6.90;;;5.90;99.90;;;;;;5338682;26;20255;-34
2024/04/12 06:27:09;;;;;;;10.10;6.47;;;6.00;99.90;;;;;;5330024;26;20006;-33
2024/04/12 06:29:35;;;;;;;10.73;7.63;;;6.20;99.90;;;;;;5337761;26;20331;-35
2024/04/12 06:32:02;;;;;;;12.73;7.13;;;6.40;99.90;;;;;;5331773;26;20475;-33
2024/04/12 06:34:28;;;;;;;13.45;9.18;;;6.50;99.90;;;;;;5338161;26;20446;-32
2024/04/12 06:36:56;;;;;;;13.15;8.15;;;6.80;99.90;;;;;;5334915;26;20005;-35
2024/04/12 06:39:26;;;;;;;10.07;6.97;;;7.00;99.90;;;;;;5339635;26;19996;-36
2024/04/12 06:41:57;;;;;;;11.68;8.07;;;7.00;99.90;;;;;;5336742;26;20083;-35
2024/04/12 06:44:24;;;;;;;11.68;7.72;;;7.10;99.90;;;;;;5337349;26;19997;-40
2024/04/12 06:46:58;;;;;;;12.67;7.63;;;7.20;99.90;;;;;;5330849;26;20851;-41
2024/04/12 06:49:27;;;;;;;9.52;6.18;;;7.20;99.90;;;;;;5326374;26;20009;-40
2024/04/12 06:52:09;;;;;;;10.30;7.93;;;7.30;99.90;;;;;;5360289;26;20004;-40
2024/04/12 06:54:41;;;;;;;10.82;8.20;;;7.50;99.90;;;;;;5336511;26;20009;-40
2024/04/12 06:57:21;;;;;;;13.55;7.72;;;7.60;99.90;;;;;;5330215;26;20000;-40
2024/04/12 06:59:53;;;;;;;9.65;6.97;;;7.90;99.90;;;;;;5335943;26;20001;-37
2024/04/12 07:02:26;;;;;;;12.00;8.20;;;8.00;99.90;;;;;;5340054;26;20804;-41
2024/04/12 07:04:53;;;;;;;12.27;7.38;;;8.20;99.90;;;;;;5345102;26;20007;-41
2024/04/12 07:07:22;;;;;;;7.05;6.22;;;8.30;99.90;;;;;;5337334;26;20005;-41
2024/04/12 07:09:58;;;;;;;12.50;7.63;;;8.50;99.90;;;;;;5338417;26;20004;-36
2024/04/12 07:12:27;;;;;;;11.00;7.85;;;8.70;99.90;;;;;;5334855;26;20147;-41
2024/04/12 07:14:57;;;;;;;11.98;7.13;;;8.90;99.90;;;;;;5339073;26;20500;-39
2024/04/12 07:17:23;;;;;;;15.65;8.57;;;9.10;99.90;;;;;;5336301;26;20057;-40
2024/04/12 07:19:54;;;;;;;10.15;8.52;;;9.30;99.90;;;;;;5336375;26;20001;-41
2024/04/12 07:22:26;;;;;;;10.85;8.13;;;9.60;99.90;;;;;;5335318;26;20020;-41
2024/04/12 07:24:53;;;;;;;15.27;9.05;;;9.70;99.90;;;;;;5330483;26;20014;-40
2024/04/12 07:27:22;;;;;;;10.88;7.28;;;9.90;99.90;;;;;;5334771;26;19997;-41
2024/04/12 07:29:49;;;;;;;10.57;7.35;;;10.10;99.90;;;;;;5331103;26;20103;-38
2024/04/12 07:32:16;;;;;;;11.23;8.07;;;10.20;99.90;;;;;;5359189;26;20052;-41
2024/04/12 07:34:51;;;;;;;10.25;6.80;;;10.30;99.90;;;;;;5377370;26;20010;-42
2024/04/12 07:37:27;;;;;;;13.48;7.32;;;10.50;99.90;;;;;;5361675;26;20007;-39
2024/04/12 07:40:15;;;;;;;11.48;8.18;;;10.50;99.90;;;;;;5367272;26;20043;-37
2024/04/12 07:42:47;;;;;;;;;;;10.70;99.90;;;;;;5367905;26;20042;-39
2024/04/12 07:45:20;;;;;;;11.63;8.07;;;11.00;99.90;;;;;;5371724;26;19925;-41
2024/04/12 07:47:52;;;;;;;12.68;8.80;;;11.30;99.90;;;;;;5362522;26;20005;-40
2024/04/12 07:50:31;;;;;;;12.07;8.18;;;11.40;99.90;;;;;;5372638;26;20125;-33
2024/04/12 07:53:10;;;;;;;12.23;8.00;;;11.40;99.90;;;;;;5365694;26;20458;-35
2024/04/12 07:55:41;;;;;;;14.95;9.13;;;11.40;99.90;;;;;;5367445;26;20790;-34
2024/04/12 07:58:10;;;;;;;12.57;9.07;;;11.40;99.90;;;;;;5369962;26;20330;-34
2024/04/12 08:00:45;;;;;;;12.20;8.73;;;11.50;99.90;;;;;;5367264;26;19997;-35
2024/04/12 08:03:15;;;;;;;11.25;8.55;;;11.70;99.90;;;;;;5331140;26;20000;-35
2024/04/12 08:06:02;;;;;;;12.27;9.05;;;11.80;99.90;;;;;;5332074;26;20454;-35
2024/04/12 08:08:46;;;;;;;11.45;8.65;;;12.10;99.90;;;;;;5334986;26;20001;-37
2024/04/12 08:11:33;;;;;;;11.65;8.73;;;12.30;99.90;;;;;;5355711;26;19996;-33
2024/04/12 08:14:06;;;;;;;10.77;8.88;;;12.50;99.90;;;;;;5338714;26;20005;-33
2024/04/12 08:16:46;;;;;;;10.48;8.32;;;12.60;99.90;;;;;;5334782;26;19997;-36
2024/04/12 08:19:14;;;;;;;12.57;7.97;;;12.80;99.90;;;;;;5336613;26;19997;-32
2024/04/12 08:21:41;;;;;;;10.45;8.80;;;13.00;99.90;;;;;;5335859;26;20016;-35
2024/04/12 08:24:09;;;;;;;14.68;8.38;;;13.30;99.90;;;;;;5335396;26;20096;-35
2024/04/12 08:26:38;;;;;;;13.15;9.25;;;13.50;99.90;;;;;;5327156;26;20012;-37
2024/04/12 08:29:11;;;;;;;12.13;8.40;;;13.60;99.90;;;;;;5335751;26;20001;-32
2024/04/12 08:31:36;;;;;;;13.80;9.30;;;13.80;99.90;;;;;;5329586;26;20343;-32
2024/04/12 08:34:05;;;;;;;12.57;8.95;;;14.00;99.90;;;;;;5336305;26;20074;-34
2024/04/12 08:36:33;;;;;;;11.60;8.40;;;14.10;99.90;;;;;;5334180;26;20052;-35
2024/04/12 08:39:25;;;;;;;11.95;8.52;;;14.20;99.90;;;;;;5383231;26;20005;-32
2024/04/12 08:41:59;;;;;;;12.13;8.43;;;14.30;99.90;;;;;;5335065;26;20012;-33
2024/04/12 08:44:31;;;;;;;11.05;8.70;;;14.50;99.90;;;;;;5334244;26;20401;-33
2024/04/12 08:47:15;;;;;;;11.88;8.00;;;14.60;99.90;;;;;;5389671;26;20015;-32
2024/04/12 08:49:48;;;;;;;9.38;7.65;;;14.90;99.90;;;;;;5326739;26;20000;-32
2024/04/12 08:52:28;;;;;;;12.95;8.25;;;15.10;99.90;;;;;;5329271;26;20017;-32
2024/04/12 08:54:56;;;;;;;10.57;7.43;;;15.20;99.90;;;;;;5334961;26;19993;-35
2024/04/12 08:57:24;;;;;;;11.53;7.47;;;15.50;99.90;;;;;;5334085;26;20012;-33
2024/04/12 08:59:58;;;;;;;10.32;7.35;;;15.80;99.90;;;;;;5332247;26;19994;-33
2024/04/12 09:02:28;;;;;;;10.10;7.47;;;16.00;99.90;;;;;;5360247;26;20018;-35
2024/04/12 09:04:54;;;;;;;9.57;7.45;;;16.20;99.90;;;;;;5375664;26;20567;-34
2024/04/12 09:07:23;;;;;;;10.40;6.82;;;16.20;93.40;;;;;;5373941;26;20000;-34
2024/04/12 09:09:54;;;;;;;10.25;7.25;;;16.30;93.60;;;;;;5362338;26;20050;-35
2024/04/12 09:12:24;;;;;;;8.40;7.22;;;16.50;95.60;;;;;;5368233;26;20007;-32
2024/04/12 09:14:51;;;;;;;10.70;6.95;;;16.30;89.60;;;;;;5370777;26;20016;-35
2024/04/12 09:17:24;;;;;;;7.68;5.53;;;16.00;91.90;;;;;;5372469;26;20498;-33
2024/04/12 09:19:50;;;;;;;11.13;7.35;;;15.90;91.70;;;;;;5373073;26;20004;-35
2024/04/12 09:22:17;;;;;;;10.73;7.95;;;15.80;91.00;;;;;;5375482;26;20355;-32
2024/04/12 09:24:48;;;;;;;10.93;7.73;;;15.80;94.30;;;;;;5374750;26;20019;-35
2024/04/12 09:27:22;;;;;;;9.90;6.88;;;15.80;95.10;;;;;;5364407;26;20000;-33
2024/04/12 09:29:59;;;;;;;9.80;7.32;;;15.90;91.20;;;;;;5363106;26;20000;-36
2024/04/12 09:35:12;;;;;;;11.73;8.02;;;16.60;83.10;;;;;;5334779;26;20079;-32
2024/04/12 09:37:53;;;;;;;11.60;7.07;;;16.60;92.60;;;;;;5337351;26;20011;-32
2024/04/12 09:40:28;;;;;;;8.35;4.95;;;17.10;93.50;;;;;;5328568;26;20007;-32
2024/04/12 09:45:45;;;;;;;9.50;7.00;;;16.90;78.10;;;;;;5329127;26;20173;-35
2024/04/12 10:38:02;;;;;;;8.20;5.88;;;18.40;81.20;;;;;;5334648;26;20074;-40
2024/04/12 10:40:30;;;;;;;8.32;6.50;;;18.80;72.30;;;;;;5326394;26;20004;-41
2024/04/12 10:42:58;;;;;;;9.82;7.40;;;18.80;69.00;;;;;;5336509;26;20004;-39
2024/04/12 10:45:25;;;;;;;10.60;6.60;;;18.10;72.30;;;;;;5339787;26;20459;-38
2024/04/12 10:47:54;;;;;;;7.28;5.80;;;17.90;72.20;;;;;;5390766;26;20155;-36
2024/04/12 10:50:21;;;;;;;10.80;7.30;;;17.90;70.40;;;;;;5338430;26;20005;-42
2024/04/12 10:52:47;;;;;;;7.40;5.95;;;18.20;70.20;;;;;;5331510;26;19997;-37
2024/04/12 10:55:16;;;;;;;10.27;6.35;;;18.50;62.40;;;;;;5329474;26;20016;-40
2024/04/12 10:57:49;;;;;;;9.05;6.35;;;18.30;63.90;;;;;;5329491;26;20508;-39
2024/04/12 11:00:16;;;;;;;10.55;6.85;;;18.40;72.80;;;;;;5337499;26;20027;-41
2024/04/12 11:02:45;;;;;;;8.18;7.22;;;18.10;67.10;;;;;;5378799;26;20012;-39
2024/04/12 11:07:46;;;;;;;8.95;6.90;;;18.30;65.50;;;;;;5334989;26;20011;-41
2024/04/12 11:10:24;;;;;;;8.48;6.53;;;18.30;69.70;;;;;;5330624;26;20013;-39
2024/04/12 11:12:55;;;;;;;8.52;6.30;;;18.70;71.10;;;;;;5334116;26;20008;-39
2024/04/12 11:31:42;;;;;;;10.20;6.80;;;19.10;69.00;;;;;;5323924;26;20071;-40
2024/04/12 11:34:08;;;;;;;9.18;7.00;;;19.30;64.30;;;;;;5327861;26;20021;-40
2024/04/12 11:36:34;;;;;;;9.02;6.53;;;19.70;64.70;;;;;;5333477;26;20008;-39
2024/04/12 11:39:18;;;;;;;9.75;7.22;;;20.10;62.80;;;;;;5338730;26;20462;-37
2024/04/12 11:41:45;;;;;;;8.73;6.28;;;19.60;74.50;;;;;;5327875;26;20006;-39
2024/04/12 11:44:17;;;;;;;10.00;6.30;;;19.70;77.30;;;;;;5336944;26;20439;-38
2024/04/12 11:46:45;;;;;;;8.07;5.85;;;20.10;72.70;;;;;;5330944;26;20323;-40
2024/04/12 11:49:11;;;;;;;8.88;6.13;;;20.40;62.50;;;;;;5334500;26;20358;-39
2024/04/12 11:51:38;;;;;;;8.70;5.88;;;20.50;65.00;;;;;;5333766;26;20019;-40
2024/04/12 11:54:05;;;;;;;7.13;6.43;;;20.40;59.30;;;;;;5336683;26;20005;-39
2024/04/12 11:56:31;;;;;;;9.77;6.93;;;20.00;68.50;;;;;;5336298;26;20491;-36
2024/04/12 11:59:03;;;;;;;8.75;6.90;;;20.00;70.60;;;;;;5331615;26;20087;-40
2024/04/12 12:01:29;;;;;;;9.27;7.45;;;19.50;72.50;;;;;;5332057;26;20012;-39
2024/04/12 12:03:58;;;;;;;10.68;7.78;;;19.30;75.50;;;;;;5331840;26;20093;-40
2024/04/12 12:06:25;;;;;;;9.98;6.93;;;19.10;79.80;;;;;;5335356;26;20009;-40
2024/04/12 12:08:57;;;;;;;9.87;7.47;;;19.30;73.10;;;;;;5334061;26;20483;-36
2024/04/12 12:11:30;;;;;;;9.63;6.88;;;19.40;75.70;;;;;;5335669;26;20020;-39
2024/04/12 12:13:55;;;;;;;7.60;6.60;;;19.40;75.60;;;;;;5337413;26;19997;-40
2024/04/12 12:16:22;;;;;;;8.88;6.38;;;19.20;66.90;;;;;;5330947;26;20040;-40
2024/04/12 12:18:47;;;;;;;7.63;5.78;;;19.30;75.80;;;;;;5327656;26;20005;-35
2024/04/12 12:21:14;;;;;;;8.77;5.72;;;19.40;74.50;;;;;;5335706;26;20468;-40
2024/04/12 12:23:40;;;;;;;6.88;5.80;;;19.90;68.20;;;;;;5331910;26;20028;-40
2024/04/12 12:26:08;;;;;;;8.48;5.18;;;20.00;62.70;;;;;;5340990;26;20037;-40
2024/04/12 12:28:34;;;;;;;9.35;6.53;;;20.20;61.20;;;;;;5328867;26;19997;-35
2024/04/12 12:31:00;;;;;;;7.57;6.03;;;20.50;66.10;;;;;;5331332;26;20001;-35
2024/04/12 12:33:32;;;;;;;7.95;5.88;;;20.10;60.30;;;;;;5337291;26;20000;-34
2024/04/12 12:35:57;;;;;;;9.57;6.28;;;20.10;72.10;;;;;;5337624;26;20521;-33
2024/04/12 12:38:23;;;;;;;8.15;6.57;;;20.00;63.90;;;;;;5332500;26;20017;-36
2024/04/12 12:40:49;;;;;;;11.60;6.95;;;19.90;72.10;;;;;;5330481;26;19997;-34
2024/04/12 12:43:15;;;;;;;8.32;6.35;;;19.90;77.50;;;;;;5334672;26;20043;-32
2024/04/12 12:45:41;;;;;;;10.43;5.82;;;19.70;74.60;;;;;;5332181;26;19993;-36
2024/04/12 12:48:19;;;;;;;8.02;5.80;;;19.60;70.70;;;;;;5330082;26;20434;-32
2024/04/12 12:50:46;;;;;;;8.52;6.63;;;19.80;68.20;;;;;;5333326;26;20330;-31
2024/04/12 12:53:13;;;;;;;7.22;6.47;;;20.20;65.10;;;;;;5332333;26;20009;-33
2024/04/12 12:55:39;;;;;;;8.55;7.05;;;20.30;69.10;;;;;;5333493;26;20009;-33
2024/04/12 12:58:11;;;;;;;7.85;6.75;;;20.00;62.30;;;;;;5329936;26;19997;-31
2024/04/12 13:00:42;;;;;;;7.57;5.65;;;19.80;69.30;;;;;;5335228;26;20001;-37
2024/04/12 13:03:11;;;;;;;5.88;5.38;;;19.80;70.30;;;;;;5333334;26;20661;-32
2024/04/12 13:05:38;;;;;;;6.07;5.25;;;20.10;66.10;;;;;;5332952;26;20537;-31
2024/04/12 13:08:05;;;;;;;11.38;6.78;;;20.00;57.80;;;;;;5333095;26;20051;-31
2024/04/12 13:10:33;;;;;;;7.50;6.70;;;20.10;66.60;;;;;;5334899;26;20074;-36
2024/04/12 13:13:06;;;;;;;7.53;6.07;;;19.80;70.10;;;;;;5334673;26;20001;-32
2024/04/12 13:15:32;;;;;;;7.88;5.68;;;19.60;65.10;;;;;;5330775;26;20082;-36
2024/04/12 13:17:58;;;;;;;6.65;4.93;;;19.70;69.20;;;;;;5333817;26;20485;-31
2024/04/12 13:20:23;;;;;;;7.57;5.28;;;19.90;65.00;;;;;;5334858;26;20143;-33
2024/04/12 13:22:49;;;;;;;6.63;5.32;;;20.10;67.20;;;;;;5330425;26;20040;-37
2024/04/12 13:25:15;;;;;;;6.80;5.32;;;20.10;63.10;;;;;;5330159;26;20008;-32
2024/04/12 13:27:46;;;;;;;6.07;4.60;;;20.20;64.50;;;;;;5328596;26;20012;-32
2024/04/12 13:30:15;;;;;;;5.18;4.65;;;20.40;56.20;;;;;;5321092;26;20074;-33
2024/04/12 13:32:42;;;;;;;5.90;4.80;;;20.90;55.20;;;;;;5337313;26;19997;-35
2024/04/12 13:35:08;;;;;;;4.80;3.95;;;21.00;54.90;;;;;;5333287;26;20005;-32
2024/04/12 13:37:34;;;;;;;4.45;3.53;;;21.00;52.30;;;;;;5336223;26;20011;-35
2024/04/12 13:40:00;;;;;;;5.57;4.28;;;21.20;51.90;;;;;;5331023;26;20327;-32
2024/04/12 13:42:25;;;;;;;6.32;4.00;;;20.80;50.70;;;;;;5334950;26;19993;-32
2024/04/12 13:53:09;;;;;;;8.88;4.40;;;20.50;51.60;;;;;;5334086;26;20092;-32
2024/04/12 13:55:39;;;;;;;4.30;3.90;;;20.70;50.90;;;;;;5335369;26;20042;-35
2024/04/12 13:58:05;;;;;;;4.50;3.63;;;21.10;55.50;;;;;;5337896;26;20037;-32
2024/04/12 14:00:32;;;;;;;5.93;4.13;;;21.10;46.60;;;;;;5328944;26;20568;-35
2024/04/12 14:02:58;;;;;;;4.75;3.80;;;21.40;51.60;;;;;;5333550;26;20333;-31
2024/04/12 14:05:34;;;;;;;4.68;4.13;;;21.60;53.80;;;;;;5336812;26;20018;-32
2024/04/12 14:08:07;;;;;;;6.15;3.88;;;21.60;49.20;;;;;;5327842;26;20772;-32
2024/04/12 14:10:34;;;;;;;7.47;5.20;;;21.20;51.50;;;;;;5335658;26;20095;-36
2024/04/12 14:13:00;;;;;;;5.18;4.68;;;20.70;59.40;;;;;;5335220;26;20001;-33
2024/04/12 14:15:26;;;;;;;5.78;5.18;;;20.50;61.60;;;;;;5335680;26;20355;-33
2024/04/12 14:17:52;;;;;;;6.50;4.50;;;20.30;62.60;;;;;;5328482;26;20015;-32
2024/04/12 14:20:20;;;;;;;6.85;5.20;;;20.30;59.80;;;;;;5331799;26;20451;-33
2024/04/12 14:22:46;;;;;;;5.93;4.40;;;20.30;63.30;;;;;;5331416;26;20028;-31
2024/04/12 14:25:12;;;;;;;6.18;4.65;;;20.30;63.60;;;;;;5337566;26;20455;-35